Latest Weather Observations for Coen Airport

IDQ60801

Issued at 3:52 pm EST Sunday 15 September 2019 (issued every 10 minutes, with the page automatically refreshed every 10 minutes)

About weather observations | Map of weather stations | Latest weather observations for QLD | Other Formats
Station Details ID: 027073 Name: COEN AIRPORT Lat: -13.76 Lon: 143.12 Height: 159.3 m
Data from the previous 72 hours. | See also: Recent months at Coen Airport
Date/Time
EST
Temp
°C
App
Temp
°C
Dew
Point
°C
Rel
Hum
%
Delta-T
°C
Wind Press
QNH
hPa
Press
MSL
hPa
Rain since
9am
mm
Dir  Spd
km/h
Gust
km/h
Spd
kts
Gust
kts
15/03:30pm 26.9 23.7 11.8 39 8.7 ENE 20 37 11 20 1015.9 1015.1 0.0
15/03:00pm 27.3 23.1 12.5 40 8.7 ENE 26 39 14 21 1016.0 1015.2 0.0
15/02:30pm 27.5 23.5 11.9 38 9.1 ENE 24 41 13 22 1016.0 1015.2 0.0
15/02:00pm 28.0 24.6 12.4 38 9.1 ENE 22 35 12 19 1016.4 1015.6 0.0
15/01:30pm 27.5 23.5 11.9 38 9.1 E 24 37 13 20 1016.8 1016.0 0.0
15/01:00pm 27.4 23.1 12.2 39 8.8 E 26 43 14 23 1017.4 1016.5 0.0
15/12:30pm 27.3 22.6 12.1 39 8.8 ENE 28 44 15 24 1017.8 1016.9 0.0
15/12:00pm 27.7 23.8 12.1 38 9.1 ENE 24 43 13 23 1018.1 1017.2 0.0
15/11:30am 26.8 22.1 12.1 40 8.5 ENE 28 43 15 23 1018.6 1017.7 0.0
15/11:00am 26.2 21.7 11.5 40 8.4 E 26 39 14 21 1019.0 1018.1 0.0
15/10:30am 26.3 22.0 12.0 41 8.3 ENE 26 44 14 24 1019.3 1018.4 0.0
15/10:00am 26.5 23.4 13.3 44 7.8 ENE 22 43 12 23 1019.4 1018.5 0.0
15/09:30am 25.4 22.4 13.6 48 7.0 E 22 35 12 19 1019.3 1018.4 0.0
15/09:00am 25.1 23.6 14.3 51 6.4 E 15 26 8 14 1019.4 1018.5 0.0
15/08:30am 23.9 21.6 14.0 54 5.9 ESE 19 35 10 19 1019.3 1018.4 0.0
15/08:00am 23.0 21.6 14.6 59 5.0 ESE 15 24 8 13 1019.1 1018.2 0.0
15/07:30am 21.3 21.1 14.7 66 3.9 ESE 9 13 5 7 1018.8 1017.9 0.0
15/07:00am 20.4 19.4 14.5 69 3.5 SE 13 19 7 10 1018.4 1017.5 0.0
15/06:30am 18.5 17.5 13.4 72 2.9 SE 11 17 6 9 1018.1 1017.2 0.0
15/06:00am 19.5 18.0 14.1 71 3.1 SSE 15 20 8 11 1017.8 1016.9 0.0
15/05:30am 19.1 17.4 13.7 71 3.1 SE 15 20 8 11 1017.6 1016.7 0.0
15/05:00am 18.8 17.8 13.4 71 3.1 SE 11 19 6 10 1017.4 1016.5 0.0
15/04:30am 19.2 18.1 14.2 73 2.9 SE 13 20 7 11 1017.5 1016.6 0.0
15/04:00am 18.4 17.7 13.3 72 2.9 ESE 9 17 5 9 1017.4 1016.5 0.0
15/03:30am 19.1 17.1 13.9 72 3.0 SE 17 22 9 12 1017.3 1016.4 0.0
15/03:00am 18.0 16.4 12.9 72 2.9 SSE 13 19 7 10 1017.6 1016.7 0.0
15/02:30am 18.2 17.1 12.0 67 3.4 SE 9 13 5 7 1017.8 1016.9 0.0
15/02:00am 18.8 17.2 11.6 63 4.0 SSE 11 15 6 8 1018.0 1017.1 0.0
15/01:30am 20.1 17.2 12.3 61 4.4 SE 19 28 10 15 1018.2 1017.3 0.0
15/01:00am 19.8 18.0 12.1 61 4.3 SE 13 19 7 10 1018.4 1017.5 0.0
15/12:30am 19.5 17.7 11.0 58 4.7 ESE 11 15 6 8 1018.6 1017.7 0.0
15/12:00am 19.8 17.5 10.5 55 5.1 ESE 13 19 7 10 1018.9 1018.0 0.0
 
Date/Time
EST
Temp
°C
App
Temp
°C
Dew
Point
°C
Rel
Hum
%
Delta-T
°C
Wind Press
QNH
hPa
Press
MSL
hPa
Rain since
9am
mm
Dir  Spd
km/h
Gust
km/h
Spd
kts
Gust
kts
14/11:30pm 20.2 18.5 9.7 51 5.7 SE 9 15 5 8 1019.1 1018.2 0.0
14/11:00pm 21.0 18.9 9.6 48 6.1 E 11 17 6 9 1019.1 1018.2 0.0
14/10:30pm 21.3 18.0 8.2 43 6.9 E 15 26 8 14 1019.0 1018.1 0.0
14/10:00pm 21.8 17.8 6.5 37 7.8 E 17 26 9 14 1018.9 1018.0 0.0
14/09:30pm 21.1 17.0 4.6 34 8.1 ESE 15 28 8 15 1018.9 1018.0 0.0
14/09:00pm 19.7 17.4 4.6 37 7.3 E 6 9 3 5 1018.6 1017.7 0.0
14/08:30pm 20.8 18.6 3.5 32 8.3 ENE 4 9 2 5 1018.2 1017.3 0.0
14/08:00pm 22.7 19.3 3.8 29 9.2 ENE 11 17 6 9 1017.9 1017.0 0.0
14/07:30pm 23.2 19.6 3.2 27 9.7 E 11 22 6 12 1017.7 1016.8 0.0
14/07:00pm 23.1 20.4 3.6 28 9.5 E 7 11 4 6 1017.4 1016.5 0.0
14/06:30pm 23.9 20.6 4.8 29 9.6 E 11 19 6 10 1016.8 1016.0 0.0
14/06:00pm 25.2 21.3 6.9 31 9.6 E 17 30 9 16 1016.4 1015.6 0.0
14/05:30pm 26.1 20.5 8.6 33 9.5 ESE 28 41 15 22 1016.1 1015.3 0.0
14/05:00pm 26.7 23.6 10.4 36 9.2 E 17 35 9 19 1015.6 1014.8 0.0
14/04:30pm 26.9 23.2 10.2 35 9.4 E 20 35 11 19 1015.6 1014.8 0.0
14/04:14pm 27.1 22.1 10.8 36 9.3 ESE 28 46 15 25 1015.7 1014.9 0.0
14/04:00pm 27.5 23.3 11.1 36 9.4 E 24 41 13 22 1015.7 1014.9 0.0
14/03:30pm 28.7 25.1 11.7 35 9.9 ESE 22 39 12 21 1015.5 1014.7 0.0
14/03:00pm 28.6 24.8 11.2 34 10.0 E 22 35 12 19 1015.6 1014.8 0.0
14/02:36pm 27.8 22.7 11.8 37 9.3 ESE 30 48 16 26 1015.7 1014.9 0.0
14/02:30pm 27.8 22.0 11.4 36 9.5 ESE 33 48 18 26 1015.7 1014.9 0.0
14/02:16pm 27.1 22.3 10.3 35 9.5 E 26 54 14 29 1015.9 1015.1 0.0
14/02:00pm 28.3 24.0 12.2 37 9.4 ENE 26 41 14 22 1016.1 1015.3 0.0
14/01:30pm 27.9 24.1 12.3 38 9.1 E 24 39 13 21 1016.3 1015.5 0.0
14/01:00pm 29.1 25.8 12.9 37 9.6 E 22 37 12 20 1016.8 1016.0 0.0
14/12:47pm 27.6 23.0 11.2 36 9.4 E 26 48 14 26 1017.2 1016.3 0.0
14/12:30pm 28.5 25.3 13.2 39 9.1 E 22 37 12 20 1017.5 1016.6 0.0
14/12:00pm 26.9 24.1 13.3 43 8.0 E 20 41 11 22 1018.2 1017.3 0.0
14/11:40am 27.5 23.3 13.4 41 8.4 ESE 28 52 15 28 1018.6 1017.7 0.0
14/11:30am 27.0 23.0 14.1 45 7.7 ESE 28 43 15 23 1018.8 1017.9 0.0
14/11:00am 26.8 24.1 14.5 46 7.4 E 22 37 12 20 1019.1 1018.2 0.0
14/10:30am 25.3 22.0 15.0 53 6.2 SE 26 35 14 19 1019.5 1018.6 0.0
14/10:00am 25.5 22.4 15.5 54 6.1 ESE 26 39 14 21 1019.9 1019.0 0.0
14/09:30am 25.0 22.0 15.9 57 5.6 SE 26 39 14 21 1020.0 1019.1 0.0
14/09:00am 24.3 21.7 15.8 59 5.2 SE 24 37 13 20 1020.0 1019.1 0.0
14/08:30am 23.4 20.7 15.7 62 4.7 SE 24 33 13 18 1019.7 1018.8 0.0
14/08:00am 21.9 21.9 15.3 66 3.9 SE 9 15 5 8 1019.7 1018.8 0.0
14/07:30am 20.9 19.8 15.2 70 3.4 SE 15 24 8 13 1019.3 1018.4 0.0
14/07:00am 19.3 18.9 15.2 77 2.4 SSE 11 17 6 9 1019.0 1018.1 0.0
14/06:30am 16.3 16.7 12.5 78 2.1 WNW 2 7 1 4 1018.7 1017.8 0.0
14/06:00am 17.5 18.2 13.4 77 2.3 E 2 11 1 6 1018.4 1017.5 0.0
14/05:30am 16.1 16.9 12.5 79 2.0 CALM 0 0 0 0 1018.3 1017.4 0.0
14/05:00am 16.6 17.4 12.6 77 2.2 CALM 0 0 0 0 1018.0 1017.1 0.0
14/04:30am 17.5 17.3 13.0 75 2.5 NE 6 9 3 5 1018.0 1017.1 0.0
14/04:00am 18.6 18.1 13.9 74 2.7 ESE 9 13 5 7 1017.9 1017.0 0.0
14/03:30am 19.4 19.0 14.2 72 3.0 E 9 17 5 9 1018.0 1017.1 0.0
14/03:00am 18.0 17.9 13.3 74 2.7 ESE 6 11 3 6 1018.2 1017.3 0.0
14/02:30am 18.5 17.5 13.4 72 2.9 SE 11 17 6 9 1018.4 1017.5 0.0
14/02:00am 18.7 18.0 13.1 70 3.2 SSE 9 13 5 7 1018.6 1017.7 0.0
14/01:30am 19.6 19.6 13.5 68 3.5 SE 6 11 3 6 1018.9 1018.0 0.0
14/01:00am 20.2 19.0 13.9 67 3.6 ESE 13 24 7 13 1019.4 1018.5 0.0
14/12:30am 20.3 19.0 13.7 66 3.8 ESE 13 19 7 10 1019.4 1018.5 0.0
14/12:00am 20.9 19.4 14.1 65 4.0 ESE 15 20 8 11 1019.5 1018.6 0.0
 
Date/Time
EST
Temp
°C
App
Temp
°C
Dew
Point
°C
Rel
Hum
%
Delta-T
°C
Wind Press
QNH
hPa
Press
MSL
hPa
Rain since
9am
mm
Dir  Spd
km/h
Gust
km/h
Spd
kts
Gust
kts
13/11:30pm 20.9 19.7 14.1 65 4.0 ESE 13 22 7 12 1019.5 1018.6 0.0
13/11:00pm 21.3 19.4 14.2 64 4.2 ESE 17 26 9 14 1019.4 1018.5 0.0
13/10:30pm 21.2 20.4 13.9 63 4.3 E 11 20 6 11 1019.4 1018.5 0.0
13/10:00pm 20.7 20.4 14.4 67 3.7 E 9 19 5 10 1019.3 1018.4 0.0
13/09:30pm 20.4 20.4 14.3 68 3.6 ESE 7 11 4 6 1019.4 1018.5 0.0
13/09:00pm 20.2 21.1 14.1 68 3.5 WSW 2 6 1 3 1019.1 1018.2 0.0
13/08:30pm 21.1 21.4 14.5 66 3.9 E 6 11 3 6 1019.0 1018.1 0.0
13/08:00pm 21.6 20.6 14.7 65 4.1 ENE 13 20 7 11 1018.7 1017.8 0.0
13/07:30pm 21.8 21.6 14.7 64 4.2 ENE 9 19 5 10 1018.3 1017.4 0.0
13/07:00pm 22.4 22.4 14.3 60 4.8 ENE 7 15 4 8 1018.0 1017.1 0.0
13/06:30pm 23.4 22.2 14.1 56 5.5 E 13 19 7 10 1017.6 1016.7 0.0
13/06:00pm 24.4 23.2 13.9 52 6.2 ENE 13 22 7 12 1017.3 1016.4 0.0
13/05:30pm 25.4 22.8 13.9 49 6.8 ESE 20 28 11 15 1016.9 1016.1 0.0
13/05:00pm 25.9 22.9 13.7 47 7.2 ESE 22 37 12 20 1016.6 1015.8 0.0
13/04:30pm 26.7 23.8 14.1 46 7.5 E 22 35 12 19 1016.4 1015.6 0.0
13/04:00pm 26.6 24.2 14.4 47 7.3 E 20 37 11 20 1016.2 1015.4 0.0
13/03:30pm 27.3 24.5 14.3 45 7.8 E 22 33 12 18 1016.2 1015.4 0.0
13/03:00pm 27.5 24.0 13.4 41 8.4 E 24 39 13 21 1016.3 1015.5 0.0
13/02:30pm 27.1 23.5 13.1 42 8.3 ESE 24 39 13 21 1016.5 1015.7 0.0
13/02:00pm 28.2 24.9 12.9 38 9.0 E 22 37 12 20 1016.7 1015.9 0.0
13/01:30pm 26.5 21.5 12.2 41 8.3 ESE 30 50 16 27 1017.3 1016.4 0.0
13/01:26pm 27.1 22.5 12.3 39 8.6 ESE 28 46 15 25 1017.3 1016.4 0.0
13/01:00pm 27.6 23.7 10.8 35 9.6 ESE 22 35 12 19 1017.7 1016.8 0.0
13/12:30pm 27.7 22.7 10.9 35 9.6 ESE 28 46 15 25 1018.0 1017.1 0.0
13/12:00pm 28.6 23.8 11.6 34 9.8 ESE 28 46 15 25 1018.6 1017.7 0.0
13/11:57am 29.2 24.6 12.2 35 10.0 ESE 28 46 15 25 1018.6 1017.7 0.0
13/11:30am 27.4 23.7 11.4 37 9.2 E 22 39 12 21 1019.3 1018.4 0.0
13/11:00am 27.7 24.6 13.3 41 8.5 ESE 22 37 12 20 1019.9 1019.0 0.0
13/10:30am 26.2 23.2 13.7 46 7.4 ESE 22 37 12 20 1020.3 1019.4 0.0
13/10:00am 25.8 22.0 14.6 50 6.7 ESE 28 44 15 24 1020.5 1019.7 0.0
13/09:30am 25.0 22.4 14.8 53 6.1 SE 22 32 12 17 1020.6 1019.8 0.0
13/09:00am 23.9 20.1 14.6 56 5.5 SE 28 41 15 22 1020.4 1019.5 0.0
13/08:30am 22.9 20.2 14.7 60 4.9 SE 22 30 12 16 1020.1 1019.2 0.0
13/08:00am 22.0 20.9 15.4 66 4.0 SE 15 20 8 11 1019.9 1019.0 0.0
13/07:30am 21.1 20.0 15.2 69 3.5 SE 15 20 8 11 1019.6 1018.7 0.0
13/07:00am 20.2 18.9 14.8 71 3.2 SE 15 22 8 12 1019.3 1018.4 0.0
13/06:30am 19.9 18.2 14.7 72 3.1 SE 17 22 9 12 1018.8 1017.9 0.0
13/06:00am 19.6 17.4 14.4 72 3.0 SE 19 24 10 13 1018.4 1017.5 0.0
13/05:30am 20.0 17.9 14.6 71 3.2 SE 19 24 10 13 1018.1 1017.2 0.0
13/05:00am 20.3 18.2 14.7 70 3.3 SE 19 30 10 16 1018.0 1017.1 0.0
13/04:30am 20.3 18.1 14.9 71 3.2 ESE 20 35 11 19 1018.0 1017.1 0.0
13/04:00am 20.5 18.4 14.8 70 3.4 ESE 19 33 10 18 1018.0 1017.1 0.0
13/03:30am 20.4 18.2 14.5 69 3.5 ESE 19 32 10 17 1018.1 1017.2 0.0
13/03:00am 20.2 19.3 14.8 71 3.2 SE 13 22 7 12 1018.0 1017.1 0.0
13/02:30am 20.3 18.7 14.9 71 3.2 SE 17 24 9 13 1018.2 1017.3 0.0
13/02:00am 20.6 18.5 14.7 69 3.5 SE 19 24 10 13 1018.3 1017.4 0.0
13/01:30am 20.6 17.8 14.3 67 3.7 SE 22 33 12 18 1018.7 1017.8 0.0
13/01:00am 20.6 17.8 14.3 67 3.7 SE 22 32 12 17 1019.0 1018.1 0.0
13/12:30am 20.6 18.3 14.0 66 3.8 SE 19 28 10 15 1019.0 1018.1 0.0
13/12:00am 20.8 17.8 13.7 64 4.1 SE 22 32 12 17 1019.1 1018.2 0.0
 
Date/Time
EST
Temp
°C
App
Temp
°C
Dew
Point
°C
Rel
Hum
%
Delta-T
°C
Wind Press
QNH
hPa
Press
MSL
hPa
Rain since
9am
mm
Dir  Spd
km/h
Gust
km/h
Spd
kts
Gust
kts
12/11:30pm 21.2 18.7 14.1 64 4.2 ESE 20 30 11 16 1019.4 1018.5 0.0
12/11:00pm 21.5 18.2 13.9 62 4.4 ESE 24 37 13 20 1019.5 1018.6 0.0
12/10:30pm 21.6 18.7 14.0 62 4.4 SE 22 32 12 17 1019.7 1018.8 0.0
12/10:00pm 21.8 19.2 13.9 61 4.6 ESE 20 30 11 16 1019.9 1019.0 0.0
12/09:30pm 22.0 19.9 13.6 59 4.9 SE 17 28 9 15 1019.8 1018.9 0.0
12/09:00pm 22.2 19.5 13.0 56 5.3 E 19 30 10 16 1019.7 1018.8 0.0
12/08:30pm 22.2 19.5 13.0 56 5.3 E 19 32 10 17 1019.3 1018.4 0.0
12/08:00pm 22.1 20.0 12.4 54 5.5 ENE 15 24 8 13 1019.0 1018.1 0.0
12/07:30pm 22.4 19.8 12.1 52 5.9 ENE 17 26 9 14 1018.9 1018.0 0.0
12/07:00pm 22.7 19.6 11.7 49 6.2 ENE 19 33 10 18 1018.5 1017.6 0.0
12/06:30pm 23.5 21.0 10.9 45 7.1 ENE 15 26 8 14 1018.4 1017.5 0.0
12/06:00pm 24.6 20.8 9.7 39 8.2 E 20 33 11 18 1018.1 1017.2 0.0
12/05:30pm 25.2 21.2 9.1 36 8.8 E 20 32 11 17 1018.0 1017.1 0.0
12/05:00pm 25.7 21.9 9.9 37 8.8 ENE 20 35 11 19 1017.8 1016.9 0.0
12/04:30pm 26.2 22.3 10.8 38 8.7 ENE 22 33 12 18 1017.5 1016.6 0.0
12/04:00pm 26.1 22.3 11.1 39 8.5 ENE 22 32 12 17 1017.2 1016.3 0.0

Other formats

Comma delimited format used in spreadsheet applications
http://www.bom.gov.au/fwo/IDQ60801/IDQ60801.94183.axf

JavaScript Object Notation format (JSON) in row-major order
http://www.bom.gov.au/fwo/IDQ60801/IDQ60801.94183.json

Data quality

Most of these data are generated automatically and are frequently updated. Quality checks on data are not normally performed. It is possible for incorrect values to appear. Refer to information at About Latest Weather Observations and please check the disclaimer before using these data.